createdAt,value
2019-04-10T00:01:01.823Z,99.90
2019-04-10T00:03:35.472Z,99.90
2019-04-10T00:06:00.566Z,99.90
2019-04-10T00:08:29.036Z,99.90
2019-04-10T00:10:58.456Z,99.90
2019-04-10T00:13:28.839Z,99.90
2019-04-10T00:15:57.415Z,99.90
2019-04-10T00:18:26.304Z,99.90
2019-04-10T00:20:54.823Z,99.90
2019-04-10T00:23:23.296Z,99.90
2019-04-10T00:25:52.918Z,99.90
2019-04-10T00:28:21.532Z,99.90
2019-04-10T00:30:50.001Z,99.90
2019-04-10T00:33:18.848Z,99.90
2019-04-10T00:35:47.739Z,99.90
2019-04-10T00:38:16.219Z,99.90
2019-04-10T00:40:45.578Z,99.90
2019-04-10T00:43:14.885Z,99.90
2019-04-10T00:45:43.992Z,99.90
2019-04-10T00:48:12.596Z,99.90
2019-04-10T00:50:41.091Z,99.90
2019-04-10T00:53:10.979Z,99.90
2019-04-10T00:55:39.803Z,99.90
2019-04-10T00:58:08.295Z,99.90
2019-04-10T01:00:37.034Z,99.90
2019-04-10T01:03:05.484Z,99.90
2019-04-10T01:05:33.951Z,99.90
2019-04-10T01:08:02.445Z,99.90
2019-04-10T01:10:30.975Z,99.90
2019-04-10T01:12:59.399Z,99.90
2019-04-10T01:15:28.795Z,99.90
2019-04-10T01:17:57.292Z,99.90
2019-04-10T01:20:25.889Z,99.90
2019-04-10T01:22:55.202Z,99.90
2019-04-10T01:25:24.200Z,99.90
2019-04-10T01:27:52.708Z,99.90
2019-04-10T01:30:22.173Z,99.90
2019-04-10T01:32:50.683Z,99.90
2019-04-10T01:35:20.230Z,99.90
2019-04-10T01:37:54.565Z,99.90
2019-04-10T01:40:19.126Z,99.90
2019-04-10T01:43:02.319Z,99.90
2019-04-10T01:45:19.514Z,99.90
2019-04-10T01:47:48.017Z,99.90
2019-04-10T01:50:16.483Z,99.90
2019-04-10T01:52:45.003Z,99.90
2019-04-10T01:55:20.088Z,99.90
2019-04-10T01:57:44.184Z,99.90
2019-04-10T02:00:15.236Z,99.90
2019-04-10T02:02:45.499Z,99.90
2019-04-10T02:05:14.463Z,99.90
2019-04-10T02:07:42.969Z,99.90
2019-04-10T02:10:12.123Z,99.90
2019-04-10T02:12:41.002Z,99.90
2019-04-10T02:15:11.855Z,99.90
2019-04-10T02:17:41.051Z,99.90
2019-04-10T02:20:10.572Z,99.90
2019-04-10T02:22:40.541Z,99.90
2019-04-10T02:25:10.240Z,99.90
2019-04-10T02:27:40.522Z,99.90
2019-04-10T02:30:12.773Z,99.90
2019-04-10T02:32:45.169Z,99.90
2019-04-10T02:35:16.535Z,99.90
2019-04-10T02:37:43.416Z,99.90
2019-04-10T02:40:12.852Z,99.90
2019-04-10T02:42:43.108Z,99.90
2019-04-10T02:45:12.639Z,99.90
2019-04-10T02:47:43.136Z,99.90
2019-04-10T02:50:12.619Z,99.90
2019-04-10T02:52:43.239Z,99.90
2019-04-10T02:55:12.083Z,99.90
2019-04-10T02:57:41.360Z,99.90
2019-04-10T03:00:10.980Z,99.90
2019-04-10T03:02:41.602Z,99.90
2019-04-10T03:05:10.788Z,99.90
2019-04-10T03:07:40.393Z,99.90
2019-04-10T03:10:23.248Z,99.90
2019-04-10T03:12:41.069Z,99.90
2019-04-10T03:15:12.582Z,99.90
2019-04-10T03:17:42.055Z,99.90
2019-04-10T03:20:10.696Z,99.90
2019-04-10T03:22:40.911Z,99.90
2019-04-10T03:25:10.930Z,99.90
2019-04-10T03:27:40.674Z,99.90
2019-04-10T03:30:12.407Z,99.90
2019-04-10T03:32:48.098Z,99.90
2019-04-10T03:35:16.907Z,99.90
2019-04-10T03:37:45.354Z,99.90
2019-04-10T03:40:13.809Z,99.90
2019-04-10T03:42:43.299Z,99.90
2019-04-10T03:45:11.881Z,99.90
2019-04-10T03:47:40.336Z,99.90
2019-04-10T03:50:08.930Z,99.90
2019-04-10T03:52:37.838Z,99.90
2019-04-10T03:55:06.767Z,99.90
2019-04-10T03:57:36.398Z,99.90
2019-04-10T04:00:09.838Z,99.90
2019-04-10T04:02:38.420Z,99.90
2019-04-10T04:05:07.000Z,99.90
2019-04-10T04:07:35.428Z,99.90
2019-04-10T04:10:06.450Z,99.90
2019-04-10T04:12:35.029Z,99.90
2019-04-10T04:15:05.269Z,99.90
2019-04-10T04:17:33.877Z,99.90
2019-04-10T04:20:02.551Z,99.90
2019-04-10T04:22:31.083Z,99.90
2019-04-10T04:25:00.282Z,99.90
2019-04-10T04:27:29.270Z,99.90
2019-04-10T04:29:57.872Z,99.90
2019-04-10T04:32:26.339Z,99.90
2019-04-10T04:34:57.090Z,99.90
2019-04-10T04:37:25.962Z,99.90
2019-04-10T04:39:54.516Z,99.90
2019-04-10T04:42:23.044Z,99.90
2019-04-10T04:44:52.102Z,99.90
2019-04-10T04:47:20.621Z,99.90
2019-04-10T04:49:50.018Z,99.90
2019-04-10T04:52:18.670Z,99.90
2019-04-10T04:54:53.316Z,99.90
2019-04-10T04:57:22.650Z,99.90
2019-04-10T04:59:51.167Z,99.90
2019-04-10T05:02:19.939Z,99.90
2019-04-10T05:04:49.384Z,99.90
2019-04-10T05:07:17.884Z,99.90
2019-04-10T05:09:46.399Z,99.90
2019-04-10T05:12:16.317Z,99.90
2019-04-10T05:14:46.081Z,99.90
2019-04-10T05:17:16.665Z,99.90
2019-04-10T05:19:44.846Z,99.90
2019-04-10T05:22:14.332Z,99.90
2019-04-10T05:24:42.814Z,99.90
2019-04-10T05:27:11.898Z,99.90
2019-04-10T05:29:40.894Z,99.90
2019-04-10T05:32:10.199Z,99.90
2019-04-10T05:34:38.697Z,99.90
2019-04-10T05:37:07.357Z,99.90
2019-04-10T05:39:43.978Z,99.90
2019-04-10T05:42:06.379Z,99.90
2019-04-10T05:44:35.958Z,99.90
2019-04-10T05:47:05.382Z,99.90
2019-04-10T05:49:35.090Z,99.90
2019-04-10T05:52:04.221Z,99.90
2019-04-10T05:54:33.313Z,99.90
2019-04-10T05:57:01.823Z,99.90
2019-04-10T05:59:30.293Z,99.90
2019-04-10T06:01:58.983Z,99.90
2019-04-10T06:04:27.535Z,99.90
2019-04-10T06:06:56.855Z,99.90
2019-04-10T06:09:25.388Z,99.90
2019-04-10T06:11:55.230Z,99.90
2019-04-10T06:14:24.200Z,99.90
2019-04-10T06:16:53.063Z,99.90
2019-04-10T06:19:22.028Z,99.90
2019-04-10T06:21:50.565Z,99.90
2019-04-10T06:24:20.110Z,99.90
2019-04-10T06:26:49.982Z,99.90
2019-04-10T06:29:19.203Z,99.90
2019-04-10T06:31:47.716Z,99.90
2019-04-10T06:34:18.596Z,99.90
2019-04-10T06:36:46.345Z,99.90
2019-04-10T06:39:14.815Z,99.90
2019-04-10T06:41:43.260Z,99.90
2019-04-10T06:44:11.906Z,99.90
2019-04-10T06:46:40.811Z,99.90
2019-04-10T06:49:10.368Z,99.90
2019-04-10T06:51:38.810Z,99.90
2019-04-10T06:54:11.019Z,99.90
2019-04-10T06:56:37.539Z,99.90
2019-04-10T06:59:06.670Z,99.90
2019-04-10T07:01:44.306Z,99.90
2019-04-10T07:04:07.610Z,99.90
2019-04-10T07:06:47.170Z,99.90
2019-04-10T07:09:07.573Z,99.90
2019-04-10T07:11:36.609Z,99.90
2019-04-10T07:14:05.157Z,99.90
2019-04-10T07:16:35.369Z,99.90
2019-04-10T07:19:05.986Z,98.80
2019-04-10T07:21:35.550Z,98.50
2019-04-10T07:24:06.584Z,98.60
2019-04-10T07:26:40.365Z,97.40
2019-04-10T07:29:04.996Z,96.10
2019-04-10T07:31:35.304Z,95.00
2019-04-10T07:34:03.608Z,95.00
2019-04-10T07:36:32.953Z,94.60
2019-04-10T07:39:01.556Z,92.40
2019-04-10T07:41:30.055Z,92.40
2019-04-10T07:43:58.766Z,92.50
2019-04-10T07:46:28.222Z,91.90
2019-04-10T07:48:56.781Z,90.20
2019-04-10T07:51:25.639Z,89.80
2019-04-10T07:53:54.083Z,90.10
2019-04-10T07:56:22.528Z,86.50
2019-04-10T07:58:51.767Z,84.30
2019-04-10T08:01:20.323Z,79.00
2019-04-10T08:03:51.315Z,78.10
2019-04-10T08:06:19.946Z,72.90
2019-04-10T08:08:49.184Z,71.90
2019-04-10T08:11:17.744Z,70.30
2019-04-10T08:13:47.058Z,67.30
2019-04-10T08:16:15.611Z,64.10
2019-04-10T08:18:44.033Z,65.20
2019-04-10T08:21:13.502Z,60.80
2019-04-10T08:23:42.353Z,63.50
2019-04-10T08:26:11.965Z,58.70
2019-04-10T08:28:41.290Z,58.40
2019-04-10T08:31:10.619Z,60.70
2019-04-10T08:33:39.123Z,59.20
2019-04-10T08:36:07.695Z,58.70
2019-04-10T08:38:36.208Z,58.30
2019-04-10T08:41:05.149Z,59.90
2019-04-10T08:43:34.114Z,60.80
2019-04-10T08:46:03.482Z,62.80
2019-04-10T08:48:33.039Z,62.60
2019-04-10T08:51:01.695Z,57.00
2019-04-10T08:53:30.659Z,56.90
2019-04-10T08:55:59.151Z,56.40
2019-04-10T08:58:27.626Z,53.90
2019-04-10T09:00:56.595Z,54.00
2019-04-10T09:03:25.148Z,51.70
2019-04-10T09:05:53.623Z,52.00
2019-04-10T09:08:22.094Z,53.30
2019-04-10T09:10:50.597Z,53.10
2019-04-10T09:13:20.053Z,52.00
2019-04-10T09:15:48.579Z,51.50
2019-04-10T09:18:17.048Z,51.20
2019-04-10T09:20:46.809Z,52.30
2019-04-10T09:23:26.566Z,51.20
2019-04-10T09:25:45.541Z,49.20
2019-04-10T09:28:14.136Z,48.00
2019-04-10T09:30:42.802Z,46.70
2019-04-10T09:33:21.033Z,47.10
2019-04-10T09:35:41.486Z,47.60
2019-04-10T09:38:10.728Z,46.40
2019-04-10T09:40:40.263Z,46.90
2019-04-10T09:43:09.316Z,48.30
2019-04-10T09:45:37.871Z,48.10
2019-04-10T09:48:06.489Z,48.80
2019-04-10T09:50:35.433Z,48.80
2019-04-10T09:53:04.171Z,48.10
2019-04-10T09:55:32.685Z,48.50
2019-04-10T09:58:02.073Z,49.40
2019-04-10T10:00:31.855Z,47.80
2019-04-10T10:03:01.506Z,47.80
2019-04-10T10:05:30.699Z,46.40
2019-04-10T10:08:00.183Z,47.20
2019-04-10T10:10:29.062Z,46.50
2019-04-10T10:12:57.567Z,45.90
2019-04-10T10:15:27.339Z,47.70
2019-04-10T10:17:57.053Z,46.40
2019-04-10T10:20:25.940Z,46.50
2019-04-10T10:22:55.667Z,46.10
2019-04-10T10:25:24.189Z,46.50
2019-04-10T10:27:52.714Z,45.90
2019-04-10T10:30:23.153Z,46.30
2019-04-10T10:32:51.754Z,46.50
2019-04-10T10:35:20.259Z,46.40
2019-04-10T10:37:48.765Z,47.00
2019-04-10T10:40:17.756Z,46.70
2019-04-10T10:42:46.314Z,45.00
2019-04-10T10:45:15.095Z,44.60
2019-04-10T10:47:44.282Z,44.50
2019-04-10T10:50:13.146Z,42.10
2019-04-10T10:52:41.769Z,43.20
2019-04-10T10:55:11.659Z,44.10
2019-04-10T10:57:41.560Z,44.00
2019-04-10T11:00:13.149Z,45.20
2019-04-10T11:02:41.833Z,44.70
2019-04-10T11:05:11.230Z,43.10
2019-04-10T11:07:40.535Z,43.80
2019-04-10T11:10:09.578Z,44.20
2019-04-10T11:12:38.470Z,42.30
2019-04-10T11:15:07.793Z,41.60
2019-04-10T11:17:36.385Z,40.50
2019-04-10T11:20:10.046Z,42.40
2019-04-10T11:22:39.726Z,42.20
2019-04-10T11:25:08.630Z,45.30
2019-04-10T11:27:37.093Z,44.50
2019-04-10T11:30:08.432Z,44.10
2019-04-10T11:32:38.073Z,44.10
2019-04-10T11:35:07.669Z,43.00
2019-04-10T11:37:43.861Z,42.70
2019-04-10T11:42:37.321Z,40.30
2019-04-10T11:45:10.334Z,40.70
2019-04-10T11:47:39.114Z,39.00
2019-04-10T11:50:12.989Z,38.60
2019-04-10T11:52:44.854Z,38.80
2019-04-10T11:55:13.828Z,40.50
2019-04-10T11:57:41.689Z,41.20
2019-04-10T12:00:12.266Z,40.70
2019-04-10T12:02:45.015Z,39.60
2019-04-10T12:05:18.139Z,38.30
2019-04-10T12:08:09.107Z,37.40
2019-04-10T12:12:42.289Z,40.20
2019-04-10T12:15:12.244Z,37.60
2019-04-10T12:17:42.981Z,38.00
2019-04-10T12:20:11.252Z,37.30
2019-04-10T12:22:40.692Z,37.20
2019-04-10T12:25:10.228Z,37.20
2019-04-10T12:27:39.046Z,35.00
2019-04-10T12:30:13.133Z,34.20
2019-04-10T12:32:41.723Z,36.00
2019-04-10T12:35:11.108Z,36.30
2019-04-10T12:37:39.559Z,36.90
2019-04-10T12:40:08.252Z,36.70
2019-04-10T12:42:36.734Z,36.60
2019-04-10T12:45:08.124Z,36.90
2019-04-10T12:47:37.683Z,37.00
2019-04-10T12:50:08.062Z,37.10
2019-04-10T12:52:36.705Z,36.20
2019-04-10T12:55:08.019Z,34.30
2019-04-10T12:57:37.062Z,33.50
2019-04-10T13:00:09.726Z,35.60
2019-04-10T13:02:38.644Z,34.90
2019-04-10T13:05:09.076Z,34.80
2019-04-10T13:07:37.940Z,33.80
2019-04-10T13:10:08.719Z,34.40
2019-04-10T13:12:37.627Z,35.40
2019-04-10T13:15:08.268Z,35.60
2019-04-10T13:17:36.708Z,34.50
2019-04-10T13:20:11.104Z,35.10
2019-04-10T13:22:40.176Z,34.70
2019-04-10T13:25:10.166Z,34.90
2019-04-10T13:27:39.011Z,33.70
2019-04-10T13:30:12.887Z,34.50
2019-04-10T13:32:42.312Z,33.80
2019-04-10T13:35:11.498Z,33.80
2019-04-10T13:37:39.925Z,33.50
2019-04-10T13:40:08.637Z,31.90
2019-04-10T13:42:37.237Z,32.80
2019-04-10T13:45:07.443Z,33.40
2019-04-10T13:47:35.892Z,31.60
2019-04-10T13:50:06.461Z,33.00
2019-04-10T13:52:36.344Z,33.00
2019-04-10T13:55:07.412Z,32.80
2019-04-10T13:57:36.994Z,32.10
2019-04-10T14:00:07.305Z,32.00
2019-04-10T14:02:39.436Z,31.90
2019-04-10T14:05:11.490Z,32.20
2019-04-10T14:07:40.255Z,33.00
2019-04-10T14:10:10.640Z,33.50
2019-04-10T14:12:39.114Z,32.30
2019-04-10T14:15:08.098Z,31.10
2019-04-10T14:17:37.518Z,32.30
2019-04-10T14:20:06.970Z,32.70
2019-04-10T14:22:37.896Z,32.90
2019-04-10T14:25:09.620Z,34.00
2019-04-10T14:27:38.522Z,34.00
2019-04-10T14:30:11.335Z,36.50
2019-04-10T14:32:39.992Z,36.60
2019-04-10T14:35:10.123Z,37.40
2019-04-10T14:37:38.939Z,37.80
2019-04-10T14:40:10.037Z,38.80
2019-04-10T14:42:38.620Z,38.10
2019-04-10T14:45:07.332Z,38.10
2019-04-10T14:47:36.124Z,38.90
2019-04-10T14:50:05.603Z,38.50
2019-04-10T14:52:34.951Z,39.40
2019-04-10T14:55:04.073Z,39.00
2019-04-10T14:57:32.828Z,39.10
2019-04-10T15:00:01.325Z,39.50
2019-04-10T15:02:30.729Z,39.50
2019-04-10T15:04:59.520Z,40.70
2019-04-10T15:07:28.892Z,40.70
2019-04-10T15:09:57.420Z,39.90
2019-04-10T15:12:25.860Z,40.10
2019-04-10T15:14:54.317Z,40.00
2019-04-10T15:17:23.124Z,40.00
2019-04-10T15:19:52.581Z,40.30
2019-04-10T15:22:23.382Z,40.10
2019-04-10T15:24:52.006Z,40.70
2019-04-10T15:27:21.465Z,41.10
2019-04-10T15:29:50.100Z,41.20
2019-04-10T15:32:18.554Z,40.90
2019-04-10T15:34:48.253Z,41.20
2019-04-10T15:37:17.206Z,41.30
2019-04-10T15:39:46.371Z,41.80
2019-04-10T15:42:16.149Z,41.60
2019-04-10T15:44:44.701Z,41.30
2019-04-10T15:47:18.343Z,41.70
2019-04-10T15:49:43.408Z,41.70
2019-04-10T15:52:12.212Z,42.00
2019-04-10T15:54:42.360Z,41.20
2019-04-10T15:57:11.588Z,41.50
2019-04-10T15:59:40.662Z,41.80
2019-04-10T16:02:09.332Z,41.00
2019-04-10T16:04:37.803Z,40.70
2019-04-10T16:07:06.321Z,40.80
2019-04-10T16:09:44.798Z,41.40
2019-04-10T16:12:10.168Z,41.60
2019-04-10T16:14:38.625Z,42.10
2019-04-10T16:17:08.874Z,41.20
2019-04-10T16:19:54.959Z,41.30
2019-04-10T16:22:25.548Z,41.80
2019-04-10T16:24:55.485Z,42.20
2019-04-10T16:27:24.363Z,42.30
2019-04-10T16:29:53.132Z,43.50
2019-04-10T16:32:21.789Z,42.90
2019-04-10T16:34:51.172Z,43.30
2019-04-10T16:37:19.636Z,44.00
2019-04-10T16:39:58.552Z,44.30
2019-04-10T16:42:18.971Z,44.70
2019-04-10T16:44:47.570Z,45.20
2019-04-10T16:47:16.081Z,45.40
2019-04-10T16:49:44.723Z,44.40
2019-04-10T16:52:13.156Z,44.40
2019-04-10T16:54:41.697Z,44.20
2019-04-10T16:57:10.242Z,44.80
2019-04-10T16:59:39.570Z,44.50
2019-04-10T17:02:09.317Z,44.30
2019-04-10T17:04:37.924Z,44.40
2019-04-10T17:07:06.610Z,45.10
2019-04-10T17:09:35.108Z,45.60
2019-04-10T17:12:03.960Z,46.30
2019-04-10T17:14:32.608Z,46.70
2019-04-10T17:17:02.109Z,46.80
2019-04-10T17:19:30.818Z,46.90
2019-04-10T17:22:00.652Z,47.40
2019-04-10T17:24:29.305Z,47.20
2019-04-10T17:26:57.836Z,46.70
2019-04-10T17:29:27.224Z,47.00
2019-04-10T17:31:55.732Z,47.40
2019-04-10T17:34:24.967Z,48.00
2019-04-10T17:36:53.605Z,48.10
2019-04-10T17:39:22.905Z,48.60
2019-04-10T17:41:52.236Z,48.80
2019-04-10T17:44:21.302Z,48.80
2019-04-10T17:46:49.891Z,49.10
2019-04-10T17:49:19.289Z,49.20
2019-04-10T17:51:47.886Z,49.60
2019-04-10T17:54:16.402Z,50.40
2019-04-10T17:56:44.840Z,50.70
2019-04-10T17:59:14.181Z,50.90
2019-04-10T18:01:43.230Z,51.60
2019-04-10T18:04:11.971Z,51.80
2019-04-10T18:06:43.895Z,52.30
2019-04-10T18:09:11.740Z,52.10
2019-04-10T18:11:41.429Z,52.20
2019-04-10T18:14:11.048Z,52.90
2019-04-10T18:16:40.156Z,53.30
2019-04-10T18:19:09.038Z,58.30
2019-04-10T18:21:37.760Z,58.60
2019-04-10T18:24:06.313Z,60.90
2019-04-10T18:26:36.053Z,56.50
2019-04-10T18:29:05.807Z,57.00
2019-04-10T18:31:34.759Z,57.40
2019-04-10T18:34:07.087Z,58.10
2019-04-10T18:36:34.135Z,58.90
2019-04-10T18:39:04.042Z,59.10
2019-04-10T18:41:32.829Z,59.20
2019-04-10T18:44:01.514Z,60.70
2019-04-10T18:46:30.999Z,61.10
2019-04-10T18:48:59.950Z,61.70
2019-04-10T18:51:28.436Z,63.00
2019-04-10T18:53:57.569Z,63.20
2019-04-10T18:56:27.200Z,63.50
2019-04-10T18:59:06.352Z,65.40
2019-04-10T19:01:37.033Z,66.00
2019-04-10T19:04:07.774Z,75.90
2019-04-10T19:06:39.063Z,71.80
2019-04-10T19:09:15.388Z,70.60
2019-04-10T19:11:38.390Z,72.10
2019-04-10T19:14:07.898Z,73.40
2019-04-10T19:16:37.410Z,73.60
2019-04-10T19:19:06.007Z,73.90
2019-04-10T19:21:35.630Z,72.70
2019-04-10T19:24:04.196Z,72.50
2019-04-10T19:26:33.526Z,74.40
2019-04-10T19:29:03.242Z,76.00
2019-04-10T19:31:34.138Z,76.80
2019-04-10T19:34:03.216Z,78.30
2019-04-10T19:36:32.851Z,79.60
2019-04-10T19:39:02.117Z,82.00
2019-04-10T19:41:35.884Z,85.10
2019-04-10T19:44:00.828Z,88.00
2019-04-10T19:46:29.343Z,87.60
2019-04-10T19:48:57.789Z,90.40
2019-04-10T19:51:26.252Z,90.60
2019-04-10T19:53:54.809Z,90.60
2019-04-10T19:56:24.471Z,91.60
2019-04-10T19:58:52.952Z,92.30
2019-04-10T20:01:24.091Z,92.80
2019-04-10T20:03:52.169Z,94.00
2019-04-10T20:06:22.306Z,94.00
2019-04-10T20:08:50.855Z,94.50
2019-04-10T20:11:31.357Z,94.20
2019-04-10T20:13:49.515Z,94.30
2019-04-10T20:16:18.002Z,94.20
2019-04-10T20:18:46.425Z,94.90
2019-04-10T20:21:15.511Z,94.60
2019-04-10T20:23:44.104Z,94.40
2019-04-10T20:26:12.693Z,94.90
2019-04-10T20:28:42.108Z,94.90
2019-04-10T20:31:13.110Z,95.00
2019-04-10T20:33:43.057Z,95.40
2019-04-10T20:36:13.037Z,96.40
2019-04-10T20:38:43.033Z,96.60
2019-04-10T20:41:12.212Z,96.60
2019-04-10T20:43:40.655Z,97.10
2019-04-10T20:46:09.848Z,96.70
2019-04-10T20:48:38.511Z,96.90
2019-04-10T20:51:08.125Z,96.80
2019-04-10T20:53:40.199Z,97.20
2019-04-10T20:56:08.832Z,97.40
2019-04-10T20:58:38.235Z,97.70
2019-04-10T21:01:06.812Z,98.30
2019-04-10T21:03:35.935Z,98.80
2019-04-10T21:06:04.751Z,99.40
2019-04-10T21:08:34.159Z,99.90
2019-04-10T21:11:03.379Z,99.90
2019-04-10T21:13:31.996Z,99.90
2019-04-10T21:16:00.758Z,99.90
2019-04-10T21:18:29.294Z,99.90
2019-04-10T21:20:57.709Z,99.90
2019-04-10T21:23:27.151Z,99.90
2019-04-10T21:25:55.701Z,99.90
2019-04-10T21:28:24.139Z,99.90
2019-04-10T21:30:54.199Z,99.90
2019-04-10T21:33:32.977Z,99.90
2019-04-10T21:36:01.841Z,99.90
2019-04-10T21:38:30.421Z,99.90
2019-04-10T21:40:59.493Z,99.90
2019-04-10T21:43:28.224Z,99.90
2019-04-10T21:45:57.475Z,99.90
2019-04-10T21:48:26.513Z,99.90
2019-04-10T21:50:55.103Z,99.90
2019-04-10T21:53:24.033Z,99.90
2019-04-10T21:55:53.570Z,99.90
2019-04-10T21:58:22.334Z,99.90
2019-04-10T22:01:01.366Z,99.90
2019-04-10T22:03:30.094Z,99.90
2019-04-10T22:06:16.314Z,99.90
2019-04-10T22:08:49.965Z,99.90
2019-04-10T22:11:19.209Z,99.90
2019-04-10T22:13:50.615Z,99.90
2019-04-10T22:16:21.941Z,99.90
2019-04-10T22:18:50.602Z,99.90
2019-04-10T22:21:19.128Z,99.90
2019-04-10T22:23:49.040Z,99.90
2019-04-10T22:26:17.894Z,99.90
2019-04-10T22:28:47.552Z,99.90
2019-04-10T22:31:16.626Z,99.90
2019-04-10T22:33:45.180Z,99.90
2019-04-10T22:36:14.895Z,99.90
2019-04-10T22:38:44.012Z,99.90
2019-04-10T22:41:24.570Z,99.90
2019-04-10T22:43:42.888Z,99.90
2019-04-10T22:46:13.072Z,99.90
2019-04-10T22:48:43.574Z,99.90
2019-04-10T22:51:12.940Z,99.90
2019-04-10T22:53:42.368Z,99.90
2019-04-10T22:56:10.951Z,99.90
2019-04-10T22:58:39.442Z,99.90
2019-04-10T23:01:09.163Z,99.90
2019-04-10T23:03:39.197Z,99.90
2019-04-10T23:06:07.627Z,99.90
2019-04-10T23:08:36.126Z,99.90
2019-04-10T23:11:05.683Z,99.90
2019-04-10T23:13:34.207Z,99.90
2019-04-10T23:16:06.035Z,99.90
2019-04-10T23:18:34.528Z,99.90
2019-04-10T23:21:03.916Z,99.90
2019-04-10T23:23:32.836Z,99.90
2019-04-10T23:26:01.272Z,99.90
2019-04-10T23:28:29.725Z,99.90
2019-04-10T23:30:59.398Z,99.90
2019-04-10T23:33:28.169Z,99.90
2019-04-10T23:35:56.631Z,99.90
2019-04-10T23:38:25.733Z,99.90
2019-04-10T23:40:54.221Z,99.90
2019-04-10T23:43:24.114Z,99.90
2019-04-10T23:45:53.662Z,99.90
2019-04-10T23:48:22.517Z,99.90
2019-04-10T23:50:51.453Z,99.90
2019-04-10T23:53:20.461Z,99.90
2019-04-10T23:55:49.050Z,99.90
2019-04-10T23:58:18.742Z,99.90
